createdAt,value
2017-08-23T00:00:23.398Z,22.47
2017-08-23T00:02:50.996Z,22.47
2017-08-23T00:05:18.720Z,25.33
2017-08-23T00:07:46.386Z,23.80
2017-08-23T00:10:14.233Z,25.80
2017-08-23T00:12:41.827Z,24.23
2017-08-23T00:15:09.336Z,21.17
2017-08-23T00:17:36.827Z,26.67
2017-08-23T00:20:04.602Z,25.90
2017-08-23T00:22:32.150Z,26.03
2017-08-23T00:25:28.752Z,23.40
2017-08-23T00:27:56.268Z,25.20
2017-08-23T00:30:23.860Z,28.53
2017-08-23T00:32:51.334Z,24.00
2017-08-23T00:35:19.201Z,23.73
2017-08-23T00:37:46.917Z,22.63
2017-08-23T00:40:14.471Z,24.87
2017-08-23T00:42:42.030Z,24.67
2017-08-23T00:45:09.687Z,23.73
2017-08-23T00:47:37.399Z,21.90
2017-08-23T00:50:05.972Z,26.07
2017-08-23T00:52:33.559Z,20.83
2017-08-23T00:55:01.202Z,21.60
2017-08-23T00:57:28.775Z,23.80
2017-08-23T00:59:56.445Z,22.27
2017-08-23T01:02:23.930Z,21.80
2017-08-23T01:04:51.403Z,22.53
2017-08-23T01:07:18.905Z,22.80
2017-08-23T01:09:46.555Z,24.70
2017-08-23T01:12:14.156Z,26.13
2017-08-23T01:14:43.344Z,25.00
2017-08-23T01:17:10.970Z,26.77
2017-08-23T01:19:38.700Z,23.10
2017-08-23T01:22:06.350Z,24.40
2017-08-23T01:24:33.871Z,25.97
2017-08-23T01:27:01.476Z,23.13
2017-08-23T01:29:29.219Z,22.37
2017-08-23T01:31:56.720Z,21.53
2017-08-23T01:34:24.408Z,21.43
2017-08-23T01:36:52.180Z,21.37
2017-08-23T01:39:19.856Z,21.70
2017-08-23T01:41:47.502Z,23.53
2017-08-23T01:44:15.134Z,24.63
2017-08-23T01:46:42.629Z,20.07
2017-08-23T01:49:10.362Z,26.43
2017-08-23T01:51:37.885Z,20.87
2017-08-23T01:54:05.397Z,23.67
2017-08-23T01:56:33.044Z,21.30
2017-08-23T01:59:00.613Z,21.83
2017-08-23T02:01:28.076Z,22.53
2017-08-23T02:03:55.649Z,19.20
2017-08-23T02:06:23.262Z,21.70
2017-08-23T02:08:50.818Z,20.97
2017-08-23T02:11:18.566Z,18.03
2017-08-23T02:13:46.062Z,22.50
2017-08-23T02:16:14.671Z,22.63
2017-08-23T02:18:42.132Z,23.63
2017-08-23T02:21:10.523Z,28.20
2017-08-23T02:23:38.175Z,26.00
2017-08-23T02:26:06.462Z,29.63
2017-08-23T02:28:34.725Z,22.70
2017-08-23T02:31:02.562Z,20.37
2017-08-23T02:33:30.044Z,25.73
2017-08-23T02:35:57.728Z,18.10
2017-08-23T02:38:25.279Z,23.27
2017-08-23T02:40:52.728Z,20.40
2017-08-23T02:43:20.437Z,25.30
2017-08-23T02:45:48.127Z,23.23
2017-08-23T02:48:15.830Z,21.50
2017-08-23T02:50:43.699Z,20.83
2017-08-23T02:53:12.011Z,20.53
2017-08-23T02:55:39.630Z,19.73
2017-08-23T02:58:07.296Z,18.77
2017-08-23T03:00:34.948Z,20.70
2017-08-23T03:03:03.345Z,22.13
2017-08-23T03:05:31.607Z,25.23
2017-08-23T03:07:59.881Z,21.53
2017-08-23T03:10:28.413Z,22.93
2017-08-23T03:12:56.116Z,22.70
2017-08-23T03:15:23.687Z,20.70
2017-08-23T03:17:51.368Z,21.07
2017-08-23T03:20:19.115Z,25.70
2017-08-23T03:22:46.616Z,21.87
2017-08-23T03:25:14.146Z,19.23
2017-08-23T03:27:41.868Z,19.67
2017-08-23T03:30:09.681Z,20.20
2017-08-23T03:32:37.574Z,26.67
2017-08-23T03:35:05.183Z,20.47
2017-08-23T03:37:32.742Z,24.47
2017-08-23T03:40:00.265Z,18.93
2017-08-23T03:42:27.832Z,20.67
2017-08-23T03:44:56.247Z,21.03
2017-08-23T03:47:23.810Z,24.83
2017-08-23T03:49:52.172Z,23.03
2017-08-23T03:52:19.711Z,20.90
2017-08-23T03:54:47.203Z,20.90
2017-08-23T03:57:15.466Z,21.03
2017-08-23T03:59:42.930Z,23.37
2017-08-23T04:02:10.487Z,24.97
2017-08-23T04:04:38.015Z,22.50
2017-08-23T04:07:05.512Z,22.17
2017-08-23T04:09:33.126Z,25.33
2017-08-23T04:12:00.899Z,21.53
2017-08-23T04:14:28.396Z,21.50
2017-08-23T04:16:55.951Z,25.60
2017-08-23T04:19:24.375Z,27.13
2017-08-23T04:21:51.858Z,21.87
2017-08-23T04:24:19.535Z,25.53
2017-08-23T04:26:47.082Z,26.03
2017-08-23T04:29:14.546Z,22.57
2017-08-23T04:31:42.031Z,28.87
2017-08-23T04:34:09.617Z,25.90
2017-08-23T04:36:37.127Z,22.23
2017-08-23T04:39:04.615Z,21.30
2017-08-23T04:41:32.149Z,24.37
2017-08-23T04:43:59.630Z,26.87
2017-08-23T04:46:27.110Z,26.43
2017-08-23T04:48:54.629Z,26.53
2017-08-23T04:51:22.159Z,22.07
2017-08-23T04:53:49.738Z,46.27
2017-08-23T04:56:17.272Z,26.90
2017-08-23T04:58:44.724Z,25.03
2017-08-23T05:01:12.224Z,21.90
2017-08-23T05:03:39.753Z,21.33
2017-08-23T05:06:07.346Z,26.07
2017-08-23T05:08:34.853Z,25.60
2017-08-23T05:11:03.321Z,24.13
2017-08-23T05:13:30.792Z,23.37
2017-08-23T05:15:58.367Z,22.90
2017-08-23T05:18:26.448Z,30.77
2017-08-23T05:20:54.073Z,24.63
2017-08-23T05:23:21.548Z,26.43
2017-08-23T05:25:49.256Z,24.07
2017-08-23T05:28:16.754Z,22.20
2017-08-23T05:30:44.234Z,24.70
2017-08-23T05:33:11.904Z,26.37
2017-08-23T05:35:39.489Z,26.57
2017-08-23T05:38:07.119Z,23.13
2017-08-23T05:40:34.957Z,21.40
2017-08-23T05:43:02.636Z,19.17
2017-08-23T05:45:30.103Z,21.70
2017-08-23T05:47:57.751Z,28.23
2017-08-23T05:50:25.562Z,23.63
2017-08-23T05:52:53.123Z,21.40
2017-08-23T05:55:20.640Z,19.63
2017-08-23T05:57:48.212Z,22.23
2017-08-23T06:00:15.808Z,21.03
2017-08-23T06:02:43.624Z,26.70
2017-08-23T06:05:11.183Z,18.63
2017-08-23T06:07:38.661Z,20.00
2017-08-23T06:10:06.194Z,17.53
2017-08-23T06:12:33.851Z,19.37
2017-08-23T06:15:01.429Z,18.77
2017-08-23T06:17:29.075Z,19.63
2017-08-23T06:19:56.871Z,18.00
2017-08-23T06:22:24.682Z,16.63
2017-08-23T06:24:52.564Z,26.30
2017-08-23T06:27:20.095Z,18.53
2017-08-23T06:29:47.600Z,17.50
2017-08-23T06:32:15.123Z,17.13
2017-08-23T06:34:42.729Z,15.30
2017-08-23T06:37:10.426Z,14.10
2017-08-23T06:39:37.932Z,20.60
2017-08-23T06:42:05.498Z,24.67
2017-08-23T06:44:33.148Z,15.27
2017-08-23T06:47:00.677Z,19.73
2017-08-23T06:49:28.296Z,35.57
2017-08-23T06:51:55.933Z,19.73
2017-08-23T06:54:23.506Z,18.27
2017-08-23T06:56:51.167Z,16.57
2017-08-23T06:59:18.631Z,14.60
2017-08-23T07:01:46.274Z,13.03
2017-08-23T07:04:14.080Z,14.30
2017-08-23T07:06:41.699Z,14.63
2017-08-23T07:09:09.189Z,15.80
2017-08-23T07:11:36.655Z,13.50
2017-08-23T07:14:04.292Z,10.87
2017-08-23T07:16:31.819Z,13.23
2017-08-23T07:18:59.314Z,13.83
2017-08-23T07:21:26.853Z,12.77
2017-08-23T07:23:54.653Z,14.53
2017-08-23T07:26:22.211Z,13.30
2017-08-23T07:28:49.731Z,16.07
2017-08-23T07:31:17.294Z,13.10
2017-08-23T07:33:44.959Z,14.97
2017-08-23T07:36:12.696Z,10.13
2017-08-23T07:38:40.190Z,9.80
2017-08-23T07:41:07.754Z,14.10
2017-08-23T07:43:36.125Z,12.53
2017-08-23T07:46:03.795Z,11.50
2017-08-23T07:48:31.337Z,14.50
2017-08-23T07:50:58.919Z,13.93
2017-08-23T07:53:26.579Z,11.10
2017-08-23T07:55:54.124Z,12.73
2017-08-23T07:58:21.910Z,12.77
2017-08-23T08:00:49.432Z,13.80
2017-08-23T08:03:16.991Z,13.47
2017-08-23T08:05:45.227Z,11.97
2017-08-23T08:08:14.252Z,14.30
2017-08-23T08:10:41.955Z,12.70
2017-08-23T08:13:10.319Z,13.40
2017-08-23T08:15:37.956Z,12.67
2017-08-23T08:18:05.415Z,13.83
2017-08-23T08:20:33.110Z,9.70
2017-08-23T08:23:00.628Z,12.57
2017-08-23T08:25:28.430Z,12.03
2017-08-23T08:27:55.986Z,13.10
2017-08-23T08:30:23.522Z,10.23
2017-08-23T08:32:51.019Z,10.20
2017-08-23T08:35:18.589Z,10.10
2017-08-23T08:37:46.241Z,11.67
2017-08-23T08:40:13.788Z,10.37
2017-08-23T08:42:41.215Z,12.10
2017-08-23T08:45:08.982Z,10.13
2017-08-23T08:47:37.434Z,12.47
2017-08-23T08:50:05.040Z,9.60
2017-08-23T08:52:32.543Z,8.40
2017-08-23T08:55:00.946Z,9.07
2017-08-23T08:57:28.444Z,9.37
2017-08-23T08:59:56.126Z,9.43
2017-08-23T09:02:23.850Z,12.17
2017-08-23T09:04:51.444Z,11.30
2017-08-23T09:07:19.207Z,15.40
2017-08-23T09:09:46.822Z,10.87
2017-08-23T09:12:14.327Z,8.00
2017-08-23T09:14:41.959Z,9.67
2017-08-23T09:17:09.671Z,9.10
2017-08-23T09:19:37.164Z,8.40
2017-08-23T09:22:04.796Z,9.23
2017-08-23T09:24:32.649Z,11.90
2017-08-23T09:27:00.279Z,8.47
2017-08-23T09:29:27.759Z,10.30
2017-08-23T09:31:55.327Z,13.47
2017-08-23T09:34:22.886Z,8.00
2017-08-23T09:36:50.559Z,11.70
2017-08-23T09:39:18.874Z,10.70
2017-08-23T09:41:46.372Z,11.37
2017-08-23T09:44:14.036Z,9.13
2017-08-23T09:46:41.567Z,8.57
2017-08-23T09:49:09.429Z,9.13
2017-08-23T09:51:37.134Z,11.53
2017-08-23T09:54:05.461Z,9.67
2017-08-23T09:56:33.440Z,9.87
2017-08-23T09:59:00.951Z,7.03
2017-08-23T10:01:29.589Z,6.73
2017-08-23T10:03:57.086Z,7.87
2017-08-23T10:06:25.671Z,6.00
2017-08-23T10:08:53.282Z,7.07
2017-08-23T10:11:21.112Z,6.33
2017-08-23T10:13:48.656Z,5.23
2017-08-23T10:16:16.264Z,10.07
2017-08-23T10:18:44.811Z,4.97
2017-08-23T10:21:12.556Z,10.80
2017-08-23T10:23:40.936Z,8.53
2017-08-23T10:26:08.820Z,6.80
2017-08-23T10:28:37.118Z,12.43
2017-08-23T10:31:04.982Z,7.80
2017-08-23T10:33:32.720Z,7.00
2017-08-23T10:36:00.491Z,6.23
2017-08-23T10:38:28.735Z,4.40
2017-08-23T10:40:57.454Z,7.07
2017-08-23T10:43:25.803Z,7.07
2017-08-23T10:45:53.611Z,8.60
2017-08-23T10:48:21.299Z,7.67
2017-08-23T10:50:49.106Z,4.33
2017-08-23T10:53:16.728Z,8.37
2017-08-23T10:55:44.528Z,3.97
2017-08-23T10:58:12.341Z,4.70
2017-08-23T11:00:39.947Z,3.90
2017-08-23T11:03:07.548Z,5.30
2017-08-23T11:05:35.214Z,6.83
2017-08-23T11:08:02.964Z,6.63
2017-08-23T11:10:30.606Z,5.37
2017-08-23T11:12:58.686Z,7.20
2017-08-23T11:15:26.486Z,8.90
2017-08-23T11:17:54.952Z,7.20
2017-08-23T11:20:23.014Z,7.23
2017-08-23T11:22:50.495Z,6.80
2017-08-23T11:25:18.219Z,5.47
2017-08-23T11:27:45.943Z,10.03
2017-08-23T11:30:14.393Z,7.70
2017-08-23T11:32:42.735Z,6.80
2017-08-23T11:35:10.398Z,9.50
2017-08-23T11:37:38.188Z,5.00
2017-08-23T11:40:05.845Z,6.17
2017-08-23T11:42:33.468Z,6.23
2017-08-23T11:45:01.024Z,5.70
2017-08-23T11:47:28.684Z,6.03
2017-08-23T11:49:56.295Z,8.70
2017-08-23T11:52:23.879Z,6.20
2017-08-23T11:54:52.131Z,5.90
2017-08-23T11:57:19.895Z,7.97
2017-08-23T11:59:48.222Z,6.53
2017-08-23T12:02:16.541Z,5.30
2017-08-23T12:04:44.938Z,6.57
2017-08-23T12:07:12.576Z,8.50
2017-08-23T12:09:40.173Z,5.50
2017-08-23T12:12:08.336Z,6.77
2017-08-23T12:14:36.752Z,5.90
2017-08-23T12:17:04.793Z,5.70
2017-08-23T12:19:32.463Z,6.23
2017-08-23T12:22:00.143Z,9.40
2017-08-23T12:24:27.729Z,7.43
2017-08-23T12:26:58.378Z,8.10
2017-08-23T12:29:26.839Z,7.17
2017-08-23T12:31:54.325Z,7.27
2017-08-23T12:34:21.946Z,8.87
2017-08-23T12:36:49.447Z,7.27
2017-08-23T12:39:17.759Z,6.20
2017-08-23T12:41:45.667Z,6.10
2017-08-23T12:44:13.153Z,8.37
2017-08-23T12:46:40.603Z,9.70
2017-08-23T12:49:08.343Z,7.80
2017-08-23T12:51:36.247Z,8.00
2017-08-23T12:54:03.831Z,7.00
2017-08-23T12:56:31.555Z,6.83
2017-08-23T12:58:59.341Z,5.80
2017-08-23T13:01:27.686Z,7.00
2017-08-23T13:03:55.381Z,5.47
2017-08-23T13:06:23.399Z,5.60
2017-08-23T13:08:51.234Z,6.90
2017-08-23T13:11:18.854Z,6.77
2017-08-23T13:13:47.056Z,9.60
2017-08-23T13:16:14.623Z,7.90
2017-08-23T13:18:42.900Z,6.93
2017-08-23T13:21:11.175Z,6.00
2017-08-23T13:23:38.767Z,5.20
2017-08-23T13:26:06.304Z,4.57
2017-08-23T13:28:33.961Z,6.73
2017-08-23T13:31:01.456Z,10.40
2017-08-23T13:33:29.229Z,5.37
2017-08-23T13:35:57.078Z,8.27
2017-08-23T13:38:24.604Z,11.43
2017-08-23T13:40:52.942Z,6.77
2017-08-23T13:43:20.585Z,6.00
2017-08-23T13:45:48.195Z,7.87
2017-08-23T13:48:15.749Z,6.70
2017-08-23T13:50:43.229Z,6.07
2017-08-23T13:53:11.478Z,5.50
2017-08-23T13:55:39.039Z,7.30
2017-08-23T13:58:06.545Z,7.03
2017-08-23T14:00:34.176Z,6.37
2017-08-23T14:03:01.947Z,5.73
2017-08-23T14:05:30.335Z,4.87
2017-08-23T14:07:58.593Z,6.80
2017-08-23T14:10:26.207Z,5.30
2017-08-23T14:12:53.996Z,5.33
2017-08-23T14:15:22.603Z,5.20
2017-08-23T14:17:50.127Z,5.83
2017-08-23T14:20:17.628Z,5.40
2017-08-23T14:22:45.168Z,7.83
2017-08-23T14:25:12.719Z,7.27
2017-08-23T14:27:40.403Z,7.97
2017-08-23T14:30:08.045Z,6.10
2017-08-23T14:32:35.593Z,5.60
2017-08-23T14:35:03.419Z,7.17
2017-08-23T14:37:31.033Z,5.20
2017-08-23T14:39:58.896Z,5.03
2017-08-23T14:42:26.560Z,6.57
2017-08-23T14:44:54.137Z,5.77
2017-08-23T14:47:22.470Z,5.67
2017-08-23T14:49:50.041Z,7.03
2017-08-23T14:52:17.507Z,8.23
2017-08-23T14:54:45.074Z,5.50
2017-08-23T14:57:12.550Z,5.87
2017-08-23T14:59:40.165Z,7.60
2017-08-23T15:02:07.767Z,5.93
2017-08-23T15:04:35.251Z,5.00
2017-08-23T15:07:02.815Z,5.50
2017-08-23T15:09:30.555Z,6.83
2017-08-23T15:11:58.174Z,7.63
2017-08-23T15:14:25.751Z,8.40
2017-08-23T15:16:53.612Z,6.60
2017-08-23T15:19:21.917Z,8.67
2017-08-23T15:21:49.491Z,9.63
2017-08-23T15:24:17.155Z,7.10
2017-08-23T15:26:45.036Z,9.73
2017-08-23T15:29:12.667Z,13.90
2017-08-23T15:31:40.307Z,8.80
2017-08-23T15:34:08.111Z,5.40
2017-08-23T15:36:36.607Z,7.50
2017-08-23T15:39:05.085Z,10.27
2017-08-23T15:41:32.607Z,8.23
2017-08-23T15:44:00.162Z,5.33
2017-08-23T15:46:27.753Z,5.57
2017-08-23T15:48:56.115Z,4.33
2017-08-23T15:51:24.017Z,7.23
2017-08-23T15:53:51.560Z,8.87
2017-08-23T15:56:19.274Z,6.97
2017-08-23T15:58:46.868Z,5.67
2017-08-23T16:01:15.355Z,14.07
2017-08-23T16:03:43.024Z,5.77
2017-08-23T16:06:10.566Z,5.97
2017-08-23T16:08:38.222Z,8.70
2017-08-23T16:11:05.968Z,9.03
2017-08-23T16:13:47.818Z,7.90
2017-08-23T16:16:15.440Z,9.53
2017-08-23T16:18:42.984Z,8.80
2017-08-23T16:21:10.786Z,9.20
2017-08-23T16:23:38.351Z,6.10
2017-08-23T16:26:05.971Z,9.33
2017-08-23T16:28:33.551Z,10.03
2017-08-23T16:31:01.132Z,31.10
2017-08-23T16:33:28.908Z,10.50
2017-08-23T16:35:56.679Z,12.23
2017-08-23T16:38:25.013Z,10.17
2017-08-23T16:40:53.421Z,8.87
2017-08-23T16:43:22.012Z,8.50
2017-08-23T16:45:50.343Z,11.30
2017-08-23T16:48:17.960Z,8.80
2017-08-23T16:50:45.612Z,12.53
2017-08-23T16:53:13.170Z,9.10
2017-08-23T16:55:40.703Z,7.13
2017-08-23T16:58:08.244Z,10.80
2017-08-23T17:00:36.061Z,9.57
2017-08-23T17:03:03.721Z,10.07
2017-08-23T17:05:31.689Z,14.20
2017-08-23T17:07:59.254Z,12.10
2017-08-23T17:10:26.951Z,13.90
2017-08-23T17:12:54.751Z,14.63
2017-08-23T17:15:23.027Z,8.83
2017-08-23T17:17:50.498Z,9.80
2017-08-23T17:20:18.188Z,11.57
2017-08-23T17:22:45.733Z,7.90
2017-08-23T17:25:13.400Z,8.87
2017-08-23T17:27:41.010Z,7.47
2017-08-23T17:30:08.604Z,8.23
2017-08-23T17:32:36.465Z,7.83
2017-08-23T17:35:04.039Z,6.93
2017-08-23T17:37:32.526Z,6.10
2017-08-23T17:40:00.031Z,7.30
2017-08-23T17:42:27.715Z,9.37
2017-08-23T17:44:56.129Z,6.60
2017-08-23T17:47:23.639Z,8.93
2017-08-23T17:49:51.230Z,9.00
2017-08-23T17:52:18.953Z,12.67
2017-08-23T17:54:46.438Z,8.43
2017-08-23T17:57:14.136Z,9.50
2017-08-23T17:59:41.799Z,6.80
2017-08-23T18:02:09.867Z,9.03
2017-08-23T18:04:38.199Z,9.47
2017-08-23T18:07:05.965Z,14.53
2017-08-23T18:09:33.467Z,11.20
2017-08-23T18:12:01.232Z,11.43
2017-08-23T18:14:28.844Z,9.80
2017-08-23T18:16:56.750Z,9.53
2017-08-23T18:19:24.269Z,12.00
2017-08-23T18:21:51.777Z,7.00
2017-08-23T18:24:19.451Z,10.53
2017-08-23T18:26:47.271Z,10.77
2017-08-23T18:29:15.186Z,8.63
2017-08-23T18:31:43.300Z,13.50
2017-08-23T19:55:35.026Z,17.20
2017-08-23T19:58:02.538Z,15.83
2017-08-23T20:00:30.008Z,13.17
2017-08-23T20:02:57.497Z,13.50
2017-08-23T20:05:25.026Z,9.30
2017-08-23T20:07:52.821Z,19.47
2017-08-23T20:10:21.209Z,16.37
2017-08-23T20:12:48.872Z,16.87
2017-08-23T20:15:17.150Z,15.10
2017-08-23T20:17:44.780Z,13.43
2017-08-23T20:20:12.263Z,15.20
2017-08-23T20:22:39.777Z,12.20
2017-08-23T20:25:07.274Z,16.20
2017-08-23T20:27:34.919Z,17.00
2017-08-23T20:30:02.450Z,10.07
2017-08-23T20:32:29.974Z,14.93
2017-08-23T20:34:57.417Z,15.40
2017-08-23T20:37:25.664Z,14.83
2017-08-23T20:39:53.228Z,14.30
2017-08-23T20:42:21.033Z,15.23
2017-08-23T20:44:48.479Z,15.20
2017-08-23T20:47:16.767Z,16.30
2017-08-23T20:49:44.295Z,15.70
2017-08-23T20:52:11.938Z,14.13
2017-08-23T20:54:39.478Z,15.30
2017-08-23T20:57:06.956Z,8.50
2017-08-23T20:59:34.518Z,12.17
2017-08-23T21:02:02.125Z,15.00
2017-08-23T21:04:30.363Z,10.03
2017-08-23T21:06:57.952Z,9.37
2017-08-23T21:09:26.275Z,10.80
2017-08-23T21:11:53.784Z,10.33
2017-08-23T21:14:21.300Z,9.50
2017-08-23T21:16:48.815Z,11.20
2017-08-23T21:19:16.326Z,11.13
2017-08-23T21:21:43.804Z,9.47
2017-08-23T21:24:12.141Z,9.93
2017-08-23T21:26:39.652Z,16.30
2017-08-23T21:29:07.260Z,10.93
2017-08-23T21:31:34.766Z,10.73
2017-08-23T21:34:02.239Z,10.10
2017-08-23T21:36:30.467Z,12.73
2017-08-23T21:38:57.948Z,24.20
2017-08-23T21:41:25.388Z,11.90
2017-08-23T21:43:52.932Z,11.47
2017-08-23T21:46:20.500Z,8.50
2017-08-23T21:48:48.001Z,9.33
2017-08-23T21:51:15.628Z,8.73
2017-08-23T21:53:43.229Z,9.47
2017-08-23T21:56:10.853Z,8.43
2017-08-23T21:58:38.505Z,8.63
2017-08-23T22:01:06.525Z,10.60
2017-08-23T22:03:34.075Z,8.33
2017-08-23T22:06:01.561Z,11.53
2017-08-23T22:08:29.122Z,10.07
2017-08-23T22:10:56.607Z,7.43
2017-08-23T22:13:24.261Z,10.77
2017-08-23T22:15:51.802Z,8.80
2017-08-23T22:18:20.046Z,11.07
2017-08-23T22:20:47.742Z,9.53
2017-08-23T22:23:15.423Z,10.60
2017-08-23T22:25:43.026Z,9.07
2017-08-23T22:28:10.795Z,8.07
2017-08-23T22:30:38.471Z,9.37
2017-08-23T22:33:06.955Z,9.57
2017-08-23T22:35:34.631Z,9.30
2017-08-23T22:38:02.520Z,7.47
2017-08-23T22:40:30.831Z,9.90
2017-08-23T22:42:58.712Z,8.77
2017-08-23T22:45:27.160Z,11.97
2017-08-23T22:47:54.758Z,13.10
2017-08-23T22:50:22.503Z,8.57
2017-08-23T22:52:50.100Z,10.63
2017-08-23T22:55:18.608Z,10.40
2017-08-23T22:57:46.796Z,7.57
2017-08-23T23:00:14.389Z,6.67
2017-08-23T23:02:41.864Z,8.90
2017-08-23T23:05:10.280Z,7.07
2017-08-23T23:07:38.016Z,7.00
2017-08-23T23:10:05.490Z,7.50
2017-08-23T23:12:32.982Z,7.50
2017-08-23T23:15:00.488Z,9.50
2017-08-23T23:17:28.493Z,8.10
2017-08-23T23:19:56.090Z,8.77
2017-08-23T23:22:23.731Z,7.27
2017-08-23T23:24:51.196Z,9.40
2017-08-23T23:27:18.703Z,6.57
2017-08-23T23:29:46.245Z,6.77
2017-08-23T23:32:14.557Z,7.20
2017-08-23T23:34:42.046Z,6.20
2017-08-23T23:37:09.656Z,8.63
2017-08-23T23:39:37.172Z,9.80
2017-08-23T23:42:04.744Z,8.60
2017-08-23T23:44:32.304Z,11.50
2017-08-23T23:46:59.931Z,10.80
2017-08-23T23:49:27.555Z,10.30
2017-08-23T23:51:55.143Z,8.80
2017-08-23T23:54:22.662Z,8.83
2017-08-23T23:56:50.154Z,8.17
2017-08-23T23:59:17.686Z,8.73
